Time;durP1;ratioP1;P1;durP2;ratioP2;P2;SDS_P1;SDS_P2;PMS_P1;PMS_P2;Temp;Humidity;BMP_temperature;BMP_pressure;BME280_temperature;BME280_humidity;BME280_pressure;Samples;Min_cycle;Max_cycle;Signal;HPM_P1;HPM_P2
2023/09/28 00:01:02;;;;;;;4.55;3.78;;;18.70;99.90;;;;;;4973269;28;20553;-61
2023/09/28 00:03:28;;;;;;;6.88;4.47;;;18.70;99.90;;;;;;4975276;28;20518;-61
2023/09/28 00:05:54;;;;;;;6.20;4.20;;;18.60;99.90;;;;;;4990076;28;20310;-62
2023/09/28 00:08:20;;;;;;;5.07;4.30;;;18.50;99.90;;;;;;4997390;28;20176;-61
2023/09/28 00:10:45;;;;;;;6.35;4.15;;;18.30;99.90;;;;;;4996957;28;20204;-61
2023/09/28 00:13:11;;;;;;;5.15;4.15;;;18.20;99.90;;;;;;4996971;28;20184;-61
2023/09/28 00:15:37;;;;;;;4.13;3.70;;;18.20;99.90;;;;;;4966101;28;20209;-62
2023/09/28 00:18:04;;;;;;;4.07;3.60;;;18.10;99.90;;;;;;4976224;28;20190;-63
2023/09/28 00:20:30;;;;;;;4.97;4.47;;;18.10;99.90;;;;;;4968986;28;20208;-62
2023/09/28 00:22:56;;;;;;;4.57;3.70;;;18.10;99.90;;;;;;4944768;28;20197;-61
2023/09/28 00:25:23;;;;;;;4.88;4.30;;;18.10;99.90;;;;;;4958473;28;20208;-61
2023/09/28 00:27:51;;;;;;;4.35;3.95;;;18.20;99.90;;;;;;4977279;28;20637;-61
2023/09/28 00:30:19;;;;;;;5.00;4.30;;;18.20;99.90;;;;;;4959830;28;20211;-62
2023/09/28 00:32:49;;;;;;;4.72;4.20;;;18.30;99.90;;;;;;4976862;28;20184;-61
2023/09/28 00:35:16;;;;;;;4.20;3.70;;;18.30;99.90;;;;;;4976879;28;20597;-61
2023/09/28 00:37:42;;;;;;;5.43;4.55;;;18.20;99.90;;;;;;4976876;28;20544;-61
2023/09/28 00:40:18;;;;;;;4.45;4.05;;;18.20;99.90;;;;;;4975830;28;20201;-61
2023/09/28 00:42:49;;;;;;;4.53;3.80;;;18.10;99.90;;;;;;4977002;28;20184;-61
2023/09/28 00:45:15;;;;;;;5.68;3.95;;;18.10;99.90;;;;;;4977032;28;20645;-61
2023/09/28 00:47:42;;;;;;;4.57;3.97;;;18.00;99.90;;;;;;4976975;28;20196;-61
2023/09/28 00:50:16;;;;;;;12.88;4.80;;;17.90;99.90;;;;;;4976330;28;20208;-61
2023/09/28 00:52:43;;;;;;;5.68;4.63;;;17.90;99.90;;;;;;4989471;28;20646;-61
2023/09/28 00:55:11;;;;;;;4.20;3.80;;;18.10;99.90;;;;;;4977039;28;20276;-61
2023/09/28 00:57:39;;;;;;;7.18;4.05;;;18.20;99.90;;;;;;4970197;28;20196;-61
2023/09/28 01:03:08;;;;;;;6.05;4.03;;;18.20;99.90;;;;;;4930782;28;20220;-61
2023/09/28 01:05:34;;;;;;;5.07;4.57;;;18.20;99.90;;;;;;4989006;28;20228;-61
2023/09/28 01:08:08;;;;;;;4.80;4.28;;;18.30;99.90;;;;;;4976338;28;20183;-61
2023/09/28 01:10:38;;;;;;;6.03;4.20;;;18.30;99.90;;;;;;4976394;28;20197;-61
2023/09/28 01:13:11;;;;;;;6.82;4.53;;;18.20;99.90;;;;;;4976846;28;20261;-61
2023/09/28 01:15:40;;;;;;;5.63;4.70;;;18.30;99.90;;;;;;4975620;28;20242;-61
2023/09/28 01:18:10;;;;;;;5.90;4.10;;;18.30;99.90;;;;;;4969508;28;20193;-61
2023/09/28 01:20:37;;;;;;;4.57;4.15;;;18.30;99.90;;;;;;4975829;28;20285;-61
2023/09/28 01:23:04;;;;;;;5.95;4.40;;;18.30;99.90;;;;;;4993264;28;20569;-62
2023/09/28 01:25:31;;;;;;;6.15;4.70;;;18.30;99.90;;;;;;4991022;28;20200;-61
2023/09/28 01:27:57;;;;;;;6.47;4.82;;;18.30;99.90;;;;;;4976166;28;20306;-62
2023/09/28 01:30:23;;;;;;;6.68;4.30;;;18.40;99.90;;;;;;4976111;28;20201;-62
2023/09/28 01:32:49;;;;;;;4.72;4.22;;;18.40;99.90;;;;;;4976068;28;20554;-61
2023/09/28 01:35:16;;;;;;;5.90;4.65;;;18.30;99.90;;;;;;4974770;28;20205;-61
2023/09/28 01:38:21;;;;;;;5.55;4.30;;;18.30;99.90;;;;;;4975700;28;20177;-62
2023/09/28 01:40:48;;;;;;;6.70;4.15;;;18.30;99.90;;;;;;4995067;28;20207;-61
2023/09/28 01:43:16;;;;;;;5.53;4.15;;;18.30;99.90;;;;;;4995707;28;20179;-60
2023/09/28 01:45:42;;;;;;;5.10;4.30;;;18.20;99.90;;;;;;4990306;28;20181;-60
2023/09/28 01:48:08;;;;;;;4.80;4.30;;;18.20;99.90;;;;;;4975931;28;20256;-63
2023/09/28 01:50:34;;;;;;;7.20;4.40;;;18.20;99.90;;;;;;4976453;28;20773;-61
2023/09/28 01:53:00;;;;;;;6.05;4.50;;;18.20;99.90;;;;;;4961734;28;20204;-61
2023/09/28 01:55:26;;;;;;;6.68;4.32;;;18.30;99.90;;;;;;4976868;28;20287;-62
2023/09/28 01:57:52;;;;;;;5.30;4.55;;;18.30;99.90;;;;;;4994606;28;20207;-60
2023/09/28 02:00:24;;;;;;;6.47;3.92;;;18.30;99.90;;;;;;4995182;28;20219;-61
2023/09/28 02:02:53;;;;;;;5.68;4.00;;;18.40;99.90;;;;;;4995507;28;20244;-60
2023/09/28 02:05:22;;;;;;;7.38;3.95;;;18.50;99.90;;;;;;4994473;28;20180;-60
2023/09/28 02:07:49;;;;;;;6.90;4.20;;;18.50;99.90;;;;;;4973241;28;20197;-60
2023/09/28 02:10:15;;;;;;;7.75;3.90;;;18.50;99.90;;;;;;4975389;28;20201;-61
2023/09/28 02:12:45;;;;;;;5.35;3.95;;;18.50;99.90;;;;;;4975312;28;20544;-60
2023/09/28 02:15:14;;;;;;;4.43;3.92;;;18.60;99.90;;;;;;4975395;28;20213;-60
2023/09/28 02:17:42;;;;;;;4.70;3.47;;;18.70;99.90;;;;;;4966180;28;20544;-60
2023/09/28 02:20:09;;;;;;;5.90;3.80;;;18.70;99.90;;;;;;4972360;28;20535;-61
2023/09/28 02:22:36;;;;;;;5.80;4.25;;;18.70;99.90;;;;;;4990497;28;20273;-60
2023/09/28 02:25:02;;;;;;;4.85;4.03;;;18.70;99.90;;;;;;4994301;28;20192;-60
2023/09/28 02:27:28;;;;;;;5.50;3.88;;;18.60;99.90;;;;;;4976970;28;20185;-60
2023/09/28 02:29:54;;;;;;;6.03;4.28;;;18.50;99.90;;;;;;4975016;28;20688;-60
2023/09/28 02:32:19;;;;;;;5.32;3.88;;;18.50;99.90;;;;;;4975314;28;20228;-60
2023/09/28 02:34:45;;;;;;;6.13;3.92;;;18.40;99.90;;;;;;4974871;28;20260;-60
2023/09/28 02:37:11;;;;;;;4.90;3.80;;;18.40;99.90;;;;;;4973191;28;20220;-60
2023/09/28 02:39:37;;;;;;;4.47;3.75;;;18.40;99.90;;;;;;4974839;28;20189;-60
2023/09/28 02:42:07;;;;;;;5.38;3.90;;;18.40;99.90;;;;;;4974841;28;20276;-61
2023/09/28 02:44:34;;;;;;;8.00;3.88;;;18.40;99.90;;;;;;4974767;28;20157;-60
2023/09/28 02:47:00;;;;;;;4.80;3.88;;;18.40;99.90;;;;;;4975608;28;20248;-60
2023/09/28 02:49:27;;;;;;;5.20;3.90;;;18.40;99.90;;;;;;4972800;28;20205;-60
2023/09/28 02:51:53;;;;;;;4.53;3.85;;;18.40;99.90;;;;;;4974534;28;20189;-60
2023/09/28 02:54:19;;;;;;;5.32;4.05;;;18.30;99.90;;;;;;4957274;28;20188;-60
2023/09/28 02:56:45;;;;;;;5.22;3.90;;;18.30;99.90;;;;;;4974382;28;20176;-61
2023/09/28 02:59:11;;;;;;;5.72;3.85;;;18.30;99.90;;;;;;4974600;28;20223;-60
2023/09/28 03:01:36;;;;;;;4.35;3.95;;;18.20;99.90;;;;;;4974607;28;20268;-61
2023/09/28 03:04:02;;;;;;;6.25;4.25;;;18.10;99.90;;;;;;4987180;28;20173;-60
2023/09/28 03:06:37;;;;;;;5.35;3.95;;;18.10;99.90;;;;;;4973234;28;20633;-61
2023/09/28 03:09:03;;;;;;;6.25;4.03;;;18.10;99.90;;;;;;4957367;28;20604;-60
2023/09/28 03:11:29;;;;;;;6.70;3.92;;;18.10;99.90;;;;;;4974544;28;20177;-60
2023/09/28 03:13:56;;;;;;;4.38;3.83;;;18.10;99.90;;;;;;4974194;28;20228;-60
2023/09/28 03:16:21;;;;;;;5.43;3.92;;;18.20;99.90;;;;;;4974400;28;20571;-60
2023/09/28 03:18:47;;;;;;;5.72;4.22;;;18.10;99.90;;;;;;4957142;28;20196;-60
2023/09/28 03:21:14;;;;;;;5.57;3.97;;;18.10;99.90;;;;;;4957057;28;20649;-61
2023/09/28 03:23:39;;;;;;;6.25;3.90;;;18.10;99.90;;;;;;4973683;28;20645;-61
2023/09/28 03:26:06;;;;;;;4.28;3.88;;;18.00;99.90;;;;;;4974281;28;20279;-60
2023/09/28 03:28:31;;;;;;;5.05;3.97;;;17.90;99.90;;;;;;4974472;28;20252;-60
2023/09/28 03:30:57;;;;;;;6.00;4.18;;;17.90;99.90;;;;;;4974410;28;20260;-60
2023/09/28 03:33:23;;;;;;;5.32;3.90;;;17.80;99.90;;;;;;4972455;28;20192;-61
2023/09/28 03:35:48;;;;;;;4.70;3.90;;;17.80;99.90;;;;;;4972987;28;20239;-61
2023/09/28 03:38:15;;;;;;;4.68;3.50;;;17.70;99.90;;;;;;4974198;28;20188;-60
2023/09/28 03:40:43;;;;;;;6.68;4.05;;;17.70;99.90;;;;;;4978089;28;20189;-60
2023/09/28 03:43:09;;;;;;;6.72;4.55;;;17.60;99.90;;;;;;4960170;28;20184;-61
2023/09/28 03:45:35;;;;;;;4.53;3.92;;;17.60;99.90;;;;;;4978119;28;20165;-61
2023/09/28 03:48:00;;;;;;;5.97;4.10;;;17.50;99.90;;;;;;4976072;28;20251;-60
2023/09/28 03:50:26;;;;;;;6.15;4.68;;;17.40;99.90;;;;;;4974436;28;20204;-60
2023/09/28 03:52:52;;;;;;;6.57;3.75;;;17.30;99.90;;;;;;4983495;28;20276;-60
2023/09/28 03:55:19;;;;;;;5.78;3.72;;;17.20;99.90;;;;;;4960501;28;20209;-60
2023/09/28 03:57:46;;;;;;;6.10;4.53;;;17.10;99.90;;;;;;4977814;28;20232;-61
2023/09/28 04:00:14;;;;;;;7.20;4.32;;;17.10;99.90;;;;;;4960186;28;20678;-61
2023/09/28 04:02:48;;;;;;;7.00;4.25;;;17.00;99.90;;;;;;4941246;29;20257;-61
2023/09/28 04:05:14;;;;;;;4.93;4.30;;;17.00;99.90;;;;;;4958497;29;20213;-61
2023/09/28 04:07:41;;;;;;;5.40;4.18;;;16.90;99.90;;;;;;4966130;28;20642;-61
2023/09/28 04:10:08;;;;;;;7.20;4.68;;;16.80;99.90;;;;;;4977712;28;20193;-60
2023/09/28 04:12:33;;;;;;;6.78;4.57;;;16.80;99.90;;;;;;4977851;28;20178;-60
2023/09/28 04:14:59;;;;;;;4.80;4.13;;;16.70;99.90;;;;;;4977381;28;20596;-61
2023/09/28 04:17:25;;;;;;;6.78;4.95;;;16.70;99.90;;;;;;4972072;28;20237;-61
2023/09/28 04:19:52;;;;;;;5.97;4.45;;;16.60;99.90;;;;;;4973160;28;20193;-60
2023/09/28 04:22:18;;;;;;;5.63;4.40;;;16.60;99.90;;;;;;4983494;28;20177;-61
2023/09/28 04:24:44;;;;;;;5.45;4.22;;;16.50;99.90;;;;;;4977618;28;20250;-60
2023/09/28 04:27:09;;;;;;;6.90;4.78;;;16.60;99.90;;;;;;4959175;28;20185;-60
2023/09/28 04:29:35;;;;;;;5.90;4.55;;;16.60;99.90;;;;;;4977072;28;20236;-60
2023/09/28 04:32:01;;;;;;;5.95;4.57;;;16.60;99.90;;;;;;4977113;28;20246;-60
2023/09/28 04:34:29;;;;;;;5.72;4.80;;;16.50;99.90;;;;;;4974649;28;20185;-60
2023/09/28 04:36:55;;;;;;;6.78;4.80;;;16.60;99.90;;;;;;4976429;28;20370;-60
2023/09/28 04:39:23;;;;;;;7.45;4.47;;;16.50;99.90;;;;;;4994760;28;20204;-61
2023/09/28 04:41:50;;;;;;;6.18;4.70;;;16.50;99.90;;;;;;4996899;28;20157;-60
2023/09/28 04:44:15;;;;;;;6.43;4.50;;;16.40;99.90;;;;;;4976472;28;20187;-62
2023/09/28 04:46:41;;;;;;;6.28;4.95;;;16.30;99.90;;;;;;4976396;28;20197;-62
2023/09/28 04:49:07;;;;;;;5.82;4.55;;;16.20;99.90;;;;;;4976841;28;20246;-61
2023/09/28 04:51:33;;;;;;;6.97;4.97;;;16.20;99.90;;;;;;4983580;28;20611;-61
2023/09/28 04:54:03;;;;;;;5.60;4.80;;;16.20;99.90;;;;;;4982032;28;20205;-62
2023/09/28 04:56:28;;;;;;;6.93;4.75;;;16.20;99.90;;;;;;4976057;28;20212;-61
2023/09/28 04:58:54;;;;;;;5.50;4.40;;;16.10;99.90;;;;;;4976924;28;20200;-62
2023/09/28 05:01:21;;;;;;;5.63;4.60;;;16.10;99.90;;;;;;4977092;28;20166;-62
2023/09/28 05:03:46;;;;;;;7.25;4.50;;;16.10;99.90;;;;;;4977251;28;20184;-62
2023/09/28 05:06:12;;;;;;;5.50;4.95;;;16.00;99.90;;;;;;4976537;28;20231;-61
2023/09/28 05:08:38;;;;;;;5.35;4.60;;;15.90;99.90;;;;;;4975533;28;20204;-61
2023/09/28 05:11:05;;;;;;;7.30;4.28;;;15.80;99.90;;;;;;4976590;28;20173;-61
2023/09/28 05:13:31;;;;;;;6.78;4.85;;;15.70;99.90;;;;;;4975405;28;20189;-62
2023/09/28 05:15:57;;;;;;;5.40;4.38;;;15.70;99.90;;;;;;4976553;28;20242;-61
2023/09/28 05:18:23;;;;;;;6.30;5.25;;;15.60;99.90;;;;;;4975367;28;20233;-61
2023/09/28 05:20:49;;;;;;;10.40;4.50;;;15.60;99.90;;;;;;4976023;28;20616;-62
2023/09/28 05:23:15;;;;;;;6.88;4.88;;;15.60;99.90;;;;;;4974538;28;20178;-61
2023/09/28 05:25:41;;;;;;;7.82;5.00;;;15.60;99.90;;;;;;4975800;28;20197;-62
2023/09/28 05:28:06;;;;;;;9.25;5.05;;;15.70;99.90;;;;;;4976249;28;20185;-61
2023/09/28 05:30:32;;;;;;;7.30;5.07;;;15.70;99.90;;;;;;4975969;28;20213;-61
2023/09/28 05:32:58;;;;;;;8.82;5.63;;;15.60;99.90;;;;;;4958917;28;20220;-62
2023/09/28 05:35:23;;;;;;;6.50;5.15;;;15.60;99.90;;;;;;4968561;28;20192;-61
2023/09/28 05:37:50;;;;;;;9.70;5.63;;;15.60;99.90;;;;;;4965086;28;20208;-62
2023/09/28 05:40:16;;;;;;;6.90;5.38;;;15.50;99.90;;;;;;4967073;28;20704;-63
2023/09/28 05:42:42;;;;;;;6.22;4.82;;;15.40;99.90;;;;;;4974432;28;20197;-62
2023/09/28 05:45:09;;;;;;;8.90;4.88;;;15.50;99.90;;;;;;4976581;28;20585;-61
2023/09/28 05:47:35;;;;;;;7.55;5.28;;;15.50;99.90;;;;;;4976112;28;20183;-61
2023/09/28 05:50:05;;;;;;;9.02;5.55;;;15.50;99.90;;;;;;4975284;28;20348;-61
2023/09/28 05:52:31;;;;;;;6.88;5.13;;;15.40;99.90;;;;;;4990782;28;20230;-61
2023/09/28 05:54:57;;;;;;;6.65;5.47;;;15.40;99.90;;;;;;4980914;28;20668;-62
2023/09/28 05:57:23;;;;;;;7.72;5.80;;;15.50;99.90;;;;;;4973430;28;20521;-62
2023/09/28 05:59:49;;;;;;;6.05;5.30;;;15.50;99.90;;;;;;4974212;28;20204;-61
2023/09/28 06:02:15;;;;;;;7.18;5.70;;;15.60;99.90;;;;;;4974976;28;20182;-61
2023/09/28 06:04:42;;;;;;;6.60;5.75;;;15.60;99.90;;;;;;4973351;28;20574;-61
2023/09/28 06:07:12;;;;;;;8.88;5.80;;;15.50;99.90;;;;;;4973302;28;20181;-61
2023/09/28 06:09:38;;;;;;;9.40;5.70;;;15.50;99.90;;;;;;4950270;28;20209;-61
2023/09/28 06:12:05;;;;;;;9.68;5.65;;;15.50;99.90;;;;;;4974081;28;20189;-61
2023/09/28 06:14:31;;;;;;;6.95;5.78;;;15.50;99.90;;;;;;4975901;28;20544;-61
2023/09/28 06:16:57;;;;;;;7.78;5.50;;;15.50;99.90;;;;;;4975250;28;20173;-62
2023/09/28 06:19:23;;;;;;;8.23;5.65;;;15.60;99.90;;;;;;4973720;28;20558;-63
2023/09/28 06:21:49;;;;;;;6.85;5.20;;;15.60;99.90;;;;;;4985029;28;20176;-61
2023/09/28 06:24:15;;;;;;;6.53;5.40;;;15.70;99.90;;;;;;4980436;28;20255;-62
2023/09/28 06:26:40;;;;;;;7.38;5.28;;;15.70;99.90;;;;;;4975096;28;20197;-61
2023/09/28 06:29:06;;;;;;;8.38;5.88;;;15.70;99.90;;;;;;4975316;28;20205;-61
2023/09/28 06:31:33;;;;;;;7.95;5.20;;;15.80;99.90;;;;;;4975062;28;20227;-61
2023/09/28 06:33:58;;;;;;;7.10;5.18;;;15.90;99.90;;;;;;4974716;28;20192;-62
2023/09/28 06:36:24;;;;;;;7.72;5.30;;;15.90;99.90;;;;;;4973813;28;20212;-61
2023/09/28 06:38:50;;;;;;;8.40;5.35;;;15.90;99.90;;;;;;4974196;28;20208;-61
2023/09/28 06:41:16;;;;;;;7.43;5.60;;;16.00;99.90;;;;;;4975122;28;20173;-61
2023/09/28 06:43:42;;;;;;;7.75;5.47;;;16.10;99.90;;;;;;4957295;28;20654;-60
2023/09/28 06:46:10;;;;;;;7.32;4.97;;;16.20;99.90;;;;;;4971844;28;20197;-61
2023/09/28 06:48:35;;;;;;;9.07;5.70;;;16.20;99.90;;;;;;4957612;28;20204;-62
2023/09/28 06:51:01;;;;;;;8.02;5.43;;;16.20;99.90;;;;;;4971862;28;20216;-62
2023/09/28 06:53:27;;;;;;;8.80;5.57;;;16.20;99.90;;;;;;4956062;28;20291;-63
2023/09/28 06:55:55;;;;;;;6.90;5.50;;;16.40;99.90;;;;;;4955382;29;20212;-63
2023/09/28 06:58:22;;;;;;;10.75;5.88;;;16.50;99.90;;;;;;4955649;29;20537;-61
2023/09/28 07:00:48;;;;;;;10.40;5.72;;;16.70;99.90;;;;;;4955312;28;20205;-61
2023/09/28 07:03:14;;;;;;;9.50;6.10;;;17.00;99.90;;;;;;4958076;28;20654;-61
2023/09/28 07:05:41;;;;;;;9.30;5.18;;;17.10;99.90;;;;;;4974589;28;20181;-60
2023/09/28 07:08:07;;;;;;;14.50;6.10;;;17.30;99.90;;;;;;4982339;28;20269;-60
2023/09/28 07:10:34;;;;;;;9.00;6.10;;;17.40;99.90;;;;;;4979824;28;20208;-60
2023/09/28 07:13:05;;;;;;;8.95;5.90;;;17.60;99.90;;;;;;4971758;28;20211;-61
2023/09/28 07:15:34;;;;;;;9.48;5.65;;;17.70;99.90;;;;;;4974338;28;20200;-59
2023/09/28 07:18:00;;;;;;;7.20;5.18;;;17.70;99.90;;;;;;4974745;28;20511;-60
2023/09/28 07:20:27;;;;;;;9.48;5.32;;;17.70;99.90;;;;;;4955602;28;20197;-60
2023/09/28 07:22:54;;;;;;;7.70;5.10;;;17.80;99.90;;;;;;4992306;28;20297;-60
2023/09/28 07:25:20;;;;;;;10.13;5.47;;;17.80;99.90;;;;;;4977124;28;20197;-61
2023/09/28 07:27:50;;;;;;;7.75;4.90;;;17.90;99.90;;;;;;4976922;28;20196;-60
2023/09/28 07:30:19;;;;;;;8.48;5.45;;;18.00;99.90;;;;;;4974568;28;20291;-59
2023/09/28 07:32:46;;;;;;;7.53;4.93;;;18.00;99.90;;;;;;4975611;28;20522;-61
2023/09/28 07:35:13;;;;;;;8.93;5.30;;;18.20;99.90;;;;;;4974438;28;20347;-61
2023/09/28 07:37:40;;;;;;;6.75;4.88;;;18.40;99.90;;;;;;4975528;28;20177;-62
2023/09/28 07:40:08;;;;;;;7.97;5.03;;;18.40;99.90;;;;;;4954857;28;20209;-60
2023/09/28 07:42:34;;;;;;;7.30;5.07;;;18.60;99.90;;;;;;4972993;28;20188;-60
2023/09/28 07:45:00;;;;;;;10.57;5.45;;;18.80;99.90;;;;;;4973437;28;20532;-61
2023/09/28 07:47:26;;;;;;;8.68;5.20;;;18.80;99.90;;;;;;4973268;28;20233;-60
2023/09/28 07:49:54;;;;;;;6.93;4.85;;;19.10;99.90;;;;;;4974388;28;20223;-60
2023/09/28 07:52:20;;;;;;;9.20;4.88;;;19.30;99.90;;;;;;4986379;28;20705;-61
2023/09/28 07:54:46;;;;;;;10.57;4.97;;;19.40;99.90;;;;;;4980383;28;20271;-60
2023/09/28 07:57:12;;;;;;;9.55;5.00;;;19.50;99.90;;;;;;4954045;28;20253;-61
2023/09/28 07:59:39;;;;;;;10.73;4.82;;;19.50;99.90;;;;;;4963957;28;20693;-61
2023/09/28 08:02:09;;;;;;;8.23;5.50;;;19.60;99.90;;;;;;4963984;28;20189;-60
2023/09/28 08:04:36;;;;;;;8.38;5.72;;;19.60;99.90;;;;;;4970970;28;20177;-60
2023/09/28 08:07:01;;;;;;;12.85;5.97;;;19.70;99.90;;;;;;4973173;28;20185;-61
2023/09/28 08:09:27;;;;;;;7.15;5.20;;;19.80;99.90;;;;;;4970257;28;20205;-60
2023/09/28 08:11:53;;;;;;;9.02;5.47;;;19.90;99.90;;;;;;4973326;28;20344;-60
2023/09/28 08:14:21;;;;;;;12.52;5.70;;;20.00;99.90;;;;;;4972744;28;20183;-61
2023/09/28 08:16:48;;;;;;;6.60;5.20;;;20.00;99.90;;;;;;4958762;28;20265;-61
2023/09/28 08:19:14;;;;;;;8.25;5.22;;;20.10;99.90;;;;;;4970275;28;20631;-61
2023/09/28 08:21:41;;;;;;;7.63;5.40;;;20.10;99.90;;;;;;4967873;28;20182;-60
2023/09/28 08:24:08;;;;;;;12.40;5.80;;;20.10;99.90;;;;;;4963543;28;20193;-62
2023/09/28 08:26:34;;;;;;;11.93;6.45;;;20.10;99.90;;;;;;4977305;28;20197;-62
2023/09/28 08:29:03;;;;;;;10.35;5.63;;;20.20;99.90;;;;;;4977603;28;20197;-62
2023/09/28 08:31:31;;;;;;;9.60;5.82;;;20.30;99.90;;;;;;4977149;28;20259;-62
2023/09/28 08:34:00;;;;;;;11.32;6.07;;;20.20;99.90;;;;;;4977203;28;20215;-63
2023/09/28 08:36:26;;;;;;;9.30;5.93;;;20.10;99.90;;;;;;4977055;28;20201;-62
2023/09/28 08:38:53;;;;;;;10.05;5.85;;;20.10;99.90;;;;;;4976877;28;20193;-62
2023/09/28 08:41:28;;;;;;;7.53;5.10;;;20.00;99.90;;;;;;4958545;28;20572;-62
2023/09/28 08:44:02;;;;;;;8.65;5.85;;;20.00;99.90;;;;;;4975939;28;20276;-62
2023/09/28 08:46:31;;;;;;;13.63;5.95;;;19.90;99.90;;;;;;4977334;28;20215;-62
2023/09/28 08:49:00;;;;;;;10.43;5.53;;;19.90;99.90;;;;;;4975672;28;20209;-62
2023/09/28 08:51:29;;;;;;;9.90;5.35;;;20.00;99.90;;;;;;4973344;28;20242;-62
2023/09/28 08:53:55;;;;;;;9.02;6.07;;;20.20;99.90;;;;;;4959480;28;20256;-62
2023/09/28 08:56:22;;;;;;;10.98;6.13;;;20.30;99.90;;;;;;4977282;28;20292;-62
2023/09/28 08:58:48;;;;;;;13.30;5.72;;;20.40;99.90;;;;;;4976590;28;20192;-62
2023/09/28 09:01:16;;;;;;;14.45;6.57;;;20.40;99.90;;;;;;4976597;28;20173;-62
2023/09/28 09:03:42;;;;;;;12.35;6.15;;;20.50;99.90;;;;;;4976934;28;20169;-62
2023/09/28 09:06:11;;;;;;;9.13;6.07;;;20.60;99.90;;;;;;4976891;28;20197;-62
2023/09/28 09:08:42;;;;;;;12.35;5.95;;;20.60;99.90;;;;;;4975271;28;20197;-62
2023/09/28 09:11:12;;;;;;;9.88;5.63;;;20.70;99.90;;;;;;4976573;28;20201;-62
2023/09/28 09:13:49;;;;;;;11.48;5.80;;;20.70;99.90;;;;;;4976939;28;20165;-62
2023/09/28 09:16:15;;;;;;;8.98;5.53;;;20.60;99.90;;;;;;4976375;28;20208;-62
2023/09/28 09:18:42;;;;;;;7.45;5.40;;;20.60;99.90;;;;;;4976326;28;20169;-62
2023/09/28 09:21:08;;;;;;;11.32;5.45;;;20.50;99.90;;;;;;4976319;28;20593;-62
2023/09/28 09:23:34;;;;;;;10.23;5.28;;;20.50;99.90;;;;;;4975137;28;20334;-62
2023/09/28 09:25:59;;;;;;;9.85;5.10;;;20.50;99.90;;;;;;4976275;28;20658;-62
2023/09/28 09:28:33;;;;;;;10.18;5.25;;;20.40;99.90;;;;;;4976267;28;20223;-62
2023/09/28 09:31:00;;;;;;;16.42;5.75;;;20.40;99.90;;;;;;4976195;28;20205;-63
2023/09/28 09:33:27;;;;;;;10.57;5.72;;;20.40;99.90;;;;;;4976114;28;20700;-62
2023/09/28 09:35:53;;;;;;;9.95;6.20;;;20.40;99.90;;;;;;4975490;28;20200;-63
2023/09/28 09:38:29;;;;;;;9.77;6.38;;;20.50;99.90;;;;;;4975833;28;20173;-63
2023/09/28 09:41:04;;;;;;;10.43;5.55;;;20.50;99.90;;;;;;4974999;28;20272;-63
2023/09/28 09:43:35;;;;;;;11.15;5.60;;;20.40;99.90;;;;;;4976306;28;20157;-63
2023/09/28 09:46:09;;;;;;;11.90;5.38;;;20.40;99.90;;;;;;4976052;28;20168;-62
2023/09/28 09:48:40;;;;;;;11.93;5.07;;;20.30;99.90;;;;;;4975781;28;20157;-63
2023/09/28 09:51:17;;;;;;;11.88;5.88;;;20.30;99.90;;;;;;4976115;28;20184;-62
2023/09/28 09:53:46;;;;;;;8.85;4.53;;;20.30;99.90;;;;;;4975934;28;20157;-62
2023/09/28 09:56:13;;;;;;;5.90;4.68;;;20.30;99.90;;;;;;4953411;28;20252;-61
2023/09/28 09:58:58;;;;;;;14.32;5.88;;;20.40;99.90;;;;;;4958272;28;20284;-60
2023/09/28 10:01:24;;;;;;;12.90;5.38;;;20.40;99.90;;;;;;4975905;28;20166;-60
2023/09/28 10:03:51;;;;;;;10.15;5.30;;;20.40;99.90;;;;;;4962994;28;20177;-61
2023/09/28 10:06:22;;;;;;;13.10;5.88;;;20.50;99.90;;;;;;4962074;28;20204;-60
2023/09/28 10:08:53;;;;;;;11.32;5.80;;;20.60;99.90;;;;;;4971919;28;20254;-60
2023/09/28 10:11:19;;;;;;;9.98;5.10;;;20.70;99.90;;;;;;4974206;28;20204;-60
2023/09/28 10:13:51;;;;;;;10.32;5.20;;;21.00;99.90;;;;;;4958024;28;20562;-60
2023/09/28 10:16:18;;;;;;;10.70;4.97;;;21.00;99.90;;;;;;4973103;28;20247;-60
2023/09/28 10:18:47;;;;;;;8.82;5.78;;;21.00;99.90;;;;;;4974301;28;20553;-61
2023/09/28 10:21:15;;;;;;;11.98;5.47;;;21.10;99.90;;;;;;4976143;28;20181;-60
2023/09/28 10:23:41;;;;;;;9.75;5.75;;;21.10;99.90;;;;;;4977084;28;20244;-62
2023/09/28 10:26:15;;;;;;;8.13;5.47;;;21.00;99.90;;;;;;4971737;28;20197;-60
2023/09/28 10:29:06;;;;;;;14.75;5.35;;;21.00;99.90;;;;;;4975309;28;20179;-61
2023/09/28 10:31:42;;;;;;;10.30;5.40;;;21.00;99.90;;;;;;4974852;28;20177;-62
2023/09/28 10:34:16;;;;;;;7.15;5.07;;;21.00;99.90;;;;;;4963912;28;20692;-61
2023/09/28 10:36:41;;;;;;;11.32;5.50;;;21.00;99.90;;;;;;4939315;29;20205;-62
2023/09/28 10:39:13;;;;;;;8.00;5.20;;;21.00;99.90;;;;;;4939112;29;20244;-61
2023/09/28 10:41:43;;;;;;;11.10;5.60;;;21.00;99.90;;;;;;4974296;28;20181;-61
2023/09/28 10:44:17;;;;;;;13.43;6.35;;;21.10;99.90;;;;;;4974900;28;20177;-60
2023/09/28 10:46:44;;;;;;;12.52;5.97;;;21.00;99.90;;;;;;4955753;28;20185;-60
2023/09/28 10:49:16;;;;;;;10.85;6.15;;;21.10;99.90;;;;;;4969362;28;20291;-61
2023/09/28 10:51:42;;;;;;;11.35;6.30;;;21.10;99.90;;;;;;4975970;28;20184;-60
2023/09/28 10:54:08;;;;;;;8.88;5.70;;;21.20;99.90;;;;;;4994330;28;20540;-62
2023/09/28 10:56:35;;;;;;;8.15;5.63;;;21.30;99.90;;;;;;4995013;28;20210;-60
2023/09/28 10:59:04;;;;;;;13.80;5.65;;;21.40;99.90;;;;;;4991310;28;20216;-63
2023/09/28 11:01:31;;;;;;;11.50;6.35;;;21.30;99.90;;;;;;4966671;28;20207;-62
2023/09/28 11:03:57;;;;;;;12.02;5.50;;;21.40;99.90;;;;;;4989538;28;20243;-63
2023/09/28 11:06:23;;;;;;;9.15;6.25;;;21.50;99.90;;;;;;4970179;28;20188;-61
2023/09/28 11:08:49;;;;;;;9.15;6.10;;;21.70;99.90;;;;;;4974354;28;20181;-61
2023/09/28 11:11:21;;;;;;;12.35;6.43;;;21.70;99.90;;;;;;4972706;28;20215;-62
2023/09/28 11:13:48;;;;;;;9.77;6.13;;;21.90;99.90;;;;;;4975683;28;20618;-63
2023/09/28 11:16:16;;;;;;;12.57;7.55;;;21.80;99.90;;;;;;4971391;28;20248;-62
2023/09/28 11:18:42;;;;;;;14.07;6.97;;;21.90;99.90;;;;;;4974875;28;20165;-63
2023/09/28 11:21:09;;;;;;;11.88;6.65;;;21.90;99.90;;;;;;4968054;28;20185;-63
2023/09/28 11:23:35;;;;;;;12.82;7.43;;;21.90;99.90;;;;;;4970816;28;20195;-63
2023/09/28 11:26:01;;;;;;;11.32;7.18;;;21.90;99.90;;;;;;4965358;28;20291;-63
2023/09/28 11:28:27;;;;;;;13.30;7.47;;;22.10;99.90;;;;;;4968494;28;20618;-61
2023/09/28 11:31:09;;;;;;;12.45;7.95;;;22.00;99.90;;;;;;4965601;28;20236;-62
2023/09/28 11:33:36;;;;;;;16.58;8.82;;;22.20;99.90;;;;;;4955449;29;20177;-63
2023/09/28 11:36:04;;;;;;;10.50;7.22;;;22.30;99.90;;;;;;4955157;29;20205;-63
2023/09/28 11:38:30;;;;;;;14.23;8.10;;;22.40;99.90;;;;;;4954829;29;20634;-63
2023/09/28 11:40:56;;;;;;;10.23;7.78;;;22.40;99.90;;;;;;4955426;29;20240;-60
2023/09/28 11:43:22;;;;;;;14.77;8.52;;;22.50;99.90;;;;;;4955741;29;20224;-63
2023/09/28 11:45:49;;;;;;;12.27;8.13;;;22.60;99.90;;;;;;4955101;28;20178;-61
2023/09/28 11:48:21;;;;;;;13.35;8.23;;;22.60;99.90;;;;;;4971541;28;20204;-60
2023/09/28 11:50:48;;;;;;;13.98;8.73;;;22.50;99.90;;;;;;4974221;28;20247;-60
2023/09/28 11:53:15;;;;;;;11.55;7.93;;;22.80;99.90;;;;;;4973587;28;20189;-60
2023/09/28 11:55:44;;;;;;;11.50;7.32;;;23.10;99.90;;;;;;4959606;28;20216;-60
2023/09/28 11:58:10;;;;;;;13.90;8.45;;;23.30;99.90;;;;;;4975071;28;20177;-60
2023/09/28 12:00:38;;;;;;;14.25;9.00;;;23.40;99.90;;;;;;4972687;28;20211;-61
2023/09/28 12:03:05;;;;;;;12.65;8.30;;;23.50;99.90;;;;;;4958718;28;20177;-62
2023/09/28 12:05:31;;;;;;;12.30;8.07;;;23.40;99.90;;;;;;4941711;29;20205;-63
2023/09/28 12:07:58;;;;;;;14.32;8.13;;;23.60;99.90;;;;;;4958457;29;20676;-63
2023/09/28 12:10:24;;;;;;;16.05;8.13;;;23.80;99.90;;;;;;4957385;28;20205;-63
2023/09/28 12:13:07;;;;;;;12.95;7.93;;;23.80;99.90;;;;;;4958903;29;20235;-61
2023/09/28 12:15:34;;;;;;;12.07;8.13;;;23.60;99.90;;;;;;4941186;29;20678;-62
2023/09/28 12:18:00;;;;;;;10.45;7.93;;;23.60;99.90;;;;;;4966727;28;20704;-62
2023/09/28 12:20:26;;;;;;;11.18;8.35;;;23.60;99.90;;;;;;4976498;28;20205;-62
2023/09/28 12:22:52;;;;;;;11.57;8.32;;;23.30;99.90;;;;;;4995441;28;20235;-62
2023/09/28 12:25:18;;;;;;;14.75;8.98;;;23.30;99.90;;;;;;4996631;28;20195;-62
2023/09/28 12:27:46;;;;;;;12.25;7.60;;;23.30;99.90;;;;;;4997361;28;20625;-62
2023/09/28 12:30:18;;;;;;;13.73;8.75;;;23.50;99.90;;;;;;4977718;28;20236;-61
2023/09/28 12:32:45;;;;;;;13.20;9.45;;;23.60;99.90;;;;;;4977848;28;20153;-60
2023/09/28 12:35:13;;;;;;;13.63;9.80;;;23.50;99.90;;;;;;4977469;28;20549;-60
2023/09/28 12:37:41;;;;;;;10.98;8.00;;;23.40;99.90;;;;;;4977155;28;20178;-60
2023/09/28 12:40:12;;;;;;;13.43;7.68;;;23.50;99.90;;;;;;4976852;28;20246;-60
2023/09/28 12:42:41;;;;;;;11.50;7.88;;;23.30;99.90;;;;;;4977485;28;20160;-60
2023/09/28 12:45:08;;;;;;;12.13;8.05;;;23.10;99.90;;;;;;4977371;28;20184;-60
2023/09/28 12:47:33;;;;;;;11.80;7.93;;;23.00;99.90;;;;;;4977194;28;20259;-60